Time;durP1;ratioP1;P1;durP2;ratioP2;P2;SDS_P1;SDS_P2;PMS_P1;PMS_P2;Temp;Humidity;BMP_temperature;BMP_pressure;BME280_temperature;BME280_humidity;BME280_pressure;Samples;Min_cycle;Max_cycle;Signal;HPM_P1;HPM_P2
2023/04/07 00:01:46;;;;;;;;;;;9.20;65.40;;;;;;9181198;19;20345;-61
2023/04/07 00:04:52;;;;;;;;;;;9.20;65.40;;;;;;9181069;19;19915;-62
2023/04/07 00:07:56;;;;;;;;;;;9.20;65.40;;;;;;9180707;19;19926;-61
2023/04/07 00:11:02;;;;;;;;;;;9.20;65.50;;;;;;9181006;19;20248;-61
2023/04/07 00:14:06;;;;;;;;;;;9.20;65.50;;;;;;9178818;19;19923;-62
2023/04/07 00:17:14;;;;;;;;;;;9.20;65.60;;;;;;9178506;19;19911;-62
2023/04/07 00:20:24;;;;;;;;;;;9.20;65.50;;;;;;9177875;19;19926;-62
2023/04/07 00:23:30;;;;;;;;;;;9.20;65.60;;;;;;9178110;19;19923;-63
2023/04/07 00:26:34;;;;;;;;;;;9.20;65.60;;;;;;9176534;19;19947;-63
2023/04/07 00:29:42;;;;;;;;;;;9.20;65.60;;;;;;9179125;19;19922;-62
2023/04/07 00:32:50;;;;;;;;;;;9.20;65.70;;;;;;9179736;19;19929;-62
2023/04/07 00:35:57;;;;;;;;;;;9.20;65.70;;;;;;9181042;19;19907;-63
2023/04/07 00:39:01;;;;;;;;;;;9.20;65.70;;;;;;9180982;19;19930;-62
2023/04/07 00:42:07;;;;;;;;;;;9.30;65.80;;;;;;9171434;19;20336;-63
2023/04/07 00:45:12;;;;;;;;;;;9.30;65.80;;;;;;9179283;19;19923;-62
2023/04/07 00:48:20;;;;;;;;;;;9.30;65.90;;;;;;9180277;19;20257;-62
2023/04/07 00:51:24;;;;;;;;;;;9.30;65.80;;;;;;9178623;19;19919;-62
2023/04/07 00:54:31;;;;;;;;;;;9.30;65.90;;;;;;9179177;19;19910;-62
2023/04/07 00:57:34;;;;;;;;;;;9.30;65.90;;;;;;9178234;19;19935;-63
2023/04/07 01:00:43;;;;;;;;;;;9.30;65.90;;;;;;9176968;19;21460;-62
2023/04/07 01:03:50;;;;;;;;;;;9.30;65.90;;;;;;9177828;19;19919;-62
2023/04/07 01:06:59;;;;;;;;;;;9.30;65.90;;;;;;9175114;19;19934;-62
2023/04/07 01:10:12;;;;;;;;;;;9.30;66.00;;;;;;9174527;19;19911;-63
2023/04/07 01:13:28;;;;;;;;;;;9.30;66.00;;;;;;9177862;19;20356;-63
2023/04/07 01:16:43;;;;;;;;;;;9.30;66.00;;;;;;9177431;19;19923;-63
2023/04/07 01:19:54;;;;;;;;;;;9.30;66.10;;;;;;9176582;19;19915;-63
2023/04/07 01:22:59;;;;;;;;;;;9.30;66.10;;;;;;9177201;19;19922;-63
2023/04/07 01:26:09;;;;;;;;;;;9.30;66.10;;;;;;9175086;19;19919;-63
2023/04/07 01:29:27;;;;;;;;;;;9.30;66.20;;;;;;9179084;19;19914;-63
2023/04/07 01:32:36;;;;;;;;;;;9.30;66.20;;;;;;9177897;19;19925;-63
2023/04/07 01:35:40;;;;;;;;;;;9.30;66.20;;;;;;9178221;19;19958;-62
2023/04/07 01:38:46;;;;;;;;;;;9.30;66.20;;;;;;9174019;19;20354;-63
2023/04/07 01:41:51;;;;;;;;;;;9.30;66.20;;;;;;9172901;19;20493;-62
2023/04/07 01:44:58;;;;;;;;;;;9.30;66.30;;;;;;9176189;19;19922;-63
2023/04/07 01:48:06;;;;;;;;;;;9.30;66.40;;;;;;9176019;19;19930;-63
2023/04/07 01:51:16;;;;;;;;;;;9.30;66.40;;;;;;9176966;19;20260;-63
2023/04/07 01:54:20;;;;;;;;;;;9.30;66.40;;;;;;9177240;19;20245;-62
2023/04/07 01:57:26;;;;;;;;;;;9.30;66.40;;;;;;9176628;19;20260;-63
2023/04/07 02:00:36;;;;;;;;;;;9.30;66.40;;;;;;9175613;19;19915;-62
2023/04/07 02:03:51;;;;;;;;;;;9.30;66.50;;;;;;9175490;19;19925;-63
2023/04/07 02:06:58;;;;;;;;;;;9.30;66.40;;;;;;9174623;19;19954;-62
2023/04/07 02:10:14;;;;;;;;;;;9.30;66.50;;;;;;9172018;19;19915;-62
2023/04/07 02:13:20;;;;;;;;;;;9.30;66.50;;;;;;9181892;19;20336;-63
2023/04/07 02:16:29;;;;;;;;;;;9.30;66.50;;;;;;9183709;19;19923;-63
2023/04/07 02:19:35;;;;;;;;;;;9.30;66.50;;;;;;9184794;19;19930;-63
2023/04/07 02:22:41;;;;;;;;;;;9.40;66.70;;;;;;9182962;19;19922;-62
2023/04/07 02:25:45;;;;;;;;;;;9.40;66.60;;;;;;9182962;19;19915;-63
2023/04/07 02:28:51;;;;;;;;;;;9.40;66.60;;;;;;9183478;19;19921;-62
2023/04/07 02:31:56;;;;;;;;;;;9.40;66.70;;;;;;9184260;19;20335;-63
2023/04/07 02:35:05;;;;;;;;;;;9.40;66.70;;;;;;9179483;19;19930;-63
2023/04/07 02:38:10;;;;;;;;;;;9.40;66.70;;;;;;9183129;19;19943;-63
2023/04/07 02:41:17;;;;;;;;;;;9.40;66.70;;;;;;9179544;19;19922;-64
2023/04/07 02:44:20;;;;;;;;;;;9.40;66.80;;;;;;9182642;19;19923;-63
2023/04/07 02:47:26;;;;;;;;;;;9.40;66.80;;;;;;9179960;19;20777;-62
2023/04/07 02:50:32;;;;;;;;;;;9.40;66.80;;;;;;9182581;19;19919;-62
2023/04/07 02:53:38;;;;;;;;;;;9.30;66.80;;;;;;9182406;19;20329;-63
2023/04/07 02:56:43;;;;;;;;;;;9.40;66.90;;;;;;9182013;19;19922;-62
2023/04/07 02:59:48;;;;;;;;;;;9.40;66.90;;;;;;9181514;19;20261;-63
2023/04/07 03:02:52;;;;;;;;;;;9.40;66.90;;;;;;9181736;19;19914;-62
2023/04/07 03:06:01;;;;;;;;;;;9.40;66.90;;;;;;9181086;19;19926;-63
2023/04/07 03:09:05;;;;;;;;;;;9.40;67.00;;;;;;9180207;19;19919;-62
2023/04/07 03:12:11;;;;;;;;;;;9.40;67.00;;;;;;9181519;19;20276;-62
2023/04/07 03:15:15;;;;;;;;;;;9.40;67.00;;;;;;9181844;19;19974;-62
2023/04/07 03:18:25;;;;;;;;;;;9.40;67.00;;;;;;9182130;19;19922;-62
2023/04/07 03:21:38;;;;;;;;;;;9.40;67.10;;;;;;9181518;19;19929;-62
2023/04/07 03:24:44;;;;;;;;;;;9.40;67.20;;;;;;9180196;19;19926;-62
2023/04/07 03:27:49;;;;;;;;;;;9.40;67.10;;;;;;9178290;19;19926;-62
2023/04/07 03:30:55;;;;;;;;;;;9.40;67.10;;;;;;9180177;19;19930;-62
2023/04/07 03:33:59;;;;;;;;;;;9.40;67.10;;;;;;9180994;19;19936;-63
2023/04/07 03:37:07;;;;;;;;;;;9.40;67.20;;;;;;9181066;19;19937;-62
2023/04/07 03:40:14;;;;;;;;;;;9.40;67.20;;;;;;9177077;19;19918;-62
2023/04/07 03:43:20;;;;;;;;;;;9.30;67.20;;;;;;9180455;19;19930;-62
2023/04/07 03:46:25;;;;;;;;;;;9.40;67.30;;;;;;9179535;19;19915;-63
2023/04/07 03:49:32;;;;;;;;;;;9.40;67.30;;;;;;9180718;19;19922;-62
2023/04/07 03:52:40;;;;;;;;;;;9.40;67.30;;;;;;9181111;19;19990;-62
2023/04/07 03:55:57;;;;;;;;;;;9.40;68.00;;;;;;9179565;19;19922;-63
2023/04/07 03:59:16;;;;;;;;;;;9.40;67.40;;;;;;9180008;19;20333;-62
2023/04/07 04:02:34;;;;;;;;;;;9.40;67.40;;;;;;9179884;19;19922;-62
2023/04/07 04:05:39;;;;;;;;;;;9.40;67.40;;;;;;9180464;19;19937;-62
2023/04/07 04:08:49;;;;;;;;;;;9.40;67.40;;;;;;9178395;19;19918;-63
2023/04/07 04:11:53;;;;;;;;;;;9.40;67.50;;;;;;9179171;19;19979;-62
2023/04/07 04:14:59;;;;;;;;;;;9.40;67.50;;;;;;9180874;19;19930;-62
2023/04/07 04:18:04;;;;;;;;;;;9.40;67.50;;;;;;9179227;19;19923;-62
2023/04/07 04:21:11;;;;;;;;;;;9.40;67.50;;;;;;9179708;19;19919;-62
2023/04/07 04:24:19;;;;;;;;;;;9.40;67.50;;;;;;9179281;19;20341;-62
2023/04/07 04:27:26;;;;;;;;;;;9.40;67.60;;;;;;9174504;19;20355;-63
2023/04/07 04:30:38;;;;;;;;;;;9.40;67.60;;;;;;9179301;19;19927;-62
2023/04/07 04:33:44;;;;;;;;;;;9.40;67.60;;;;;;9177919;19;20340;-62
2023/04/07 04:36:49;;;;;;;;;;;9.30;67.60;;;;;;9179837;19;19954;-62
2023/04/07 04:39:59;;;;;;;;;;;9.40;67.70;;;;;;9173739;19;19929;-61
2023/04/07 04:43:05;;;;;;;;;;;9.40;67.70;;;;;;9179457;19;19925;-62
2023/04/07 04:46:14;;;;;;;;;;;9.40;67.70;;;;;;9179225;19;19915;-62
2023/04/07 04:49:19;;;;;;;;;;;9.40;67.80;;;;;;9178723;19;19934;-62
2023/04/07 04:52:28;;;;;;;;;;;9.40;67.80;;;;;;9178861;19;19926;-62
2023/04/07 04:55:34;;;;;;;;;;;9.30;67.80;;;;;;9178720;19;19955;-62
2023/04/07 04:58:45;;;;;;;;;;;9.30;67.80;;;;;;9177870;19;19915;-62
2023/04/07 05:01:53;;;;;;;;;;;9.30;67.90;;;;;;9178221;19;19927;-62
2023/04/07 05:04:59;;;;;;;;;;;9.30;67.80;;;;;;9178285;19;19922;-62
2023/04/07 05:08:06;;;;;;;;;;;9.30;67.90;;;;;;9174393;19;19926;-62
2023/04/07 05:11:17;;;;;;;;;;;9.30;67.90;;;;;;9167414;19;20337;-62
2023/04/07 05:14:25;;;;;;;;;;;9.30;67.90;;;;;;9169923;19;19926;-62
2023/04/07 05:17:37;;;;;;;;;;;9.30;67.90;;;;;;9169894;19;19911;-61
2023/04/07 05:20:42;;;;;;;;;;;9.30;68.00;;;;;;9169320;19;19923;-61
2023/04/07 05:23:48;;;;;;;;;;;9.30;68.10;;;;;;9163267;19;20292;-62
2023/04/07 05:26:58;;;;;;;;;;;9.30;68.00;;;;;;9173769;19;20005;-62
2023/04/07 05:30:05;;;;;;;;;;;9.30;68.10;;;;;;9177163;19;20343;-62
2023/04/07 05:33:11;;;;;;;;;;;9.30;68.10;;;;;;9176073;19;19982;-62
2023/04/07 05:36:27;;;;;;;;;;;9.30;68.10;;;;;;9177041;19;20376;-61
2023/04/07 05:39:33;;;;;;;;;;;9.30;68.10;;;;;;9176935;19;20412;-61
2023/04/07 05:42:43;;;;;;;;;;;9.30;68.20;;;;;;9172437;19;19911;-62
2023/04/07 05:45:47;;;;;;;;;;;9.30;68.20;;;;;;9176116;19;20480;-62
2023/04/07 05:48:53;;;;;;;;;;;9.20;68.20;;;;;;9183498;19;19923;-63
2023/04/07 05:51:58;;;;;;;;;;;9.20;68.20;;;;;;9185194;19;19926;-62
2023/04/07 05:55:05;;;;;;;;;;;9.20;68.20;;;;;;9186322;19;19922;-62
2023/04/07 05:58:11;;;;;;;;;;;9.20;68.30;;;;;;9184432;19;19915;-62
2023/04/07 06:01:20;;;;;;;;;;;9.20;68.30;;;;;;9184038;19;19922;-61
2023/04/07 06:04:24;;;;;;;;;;;9.20;68.30;;;;;;9183528;19;19926;-61
2023/04/07 06:07:31;;;;;;;;;;;9.20;68.30;;;;;;9182528;19;19915;-61
2023/04/07 06:10:34;;;;;;;;;;;9.20;68.30;;;;;;9184630;19;20332;-61
2023/04/07 06:13:42;;;;;;;;;;;9.20;68.40;;;;;;9185287;19;19922;-62
2023/04/07 06:16:46;;;;;;;;;;;9.20;68.40;;;;;;9183338;19;19925;-62
2023/04/07 06:19:52;;;;;;;;;;;9.20;68.40;;;;;;9181574;19;19922;-62
2023/04/07 06:22:56;;;;;;;;;;;9.20;68.40;;;;;;9182760;19;19923;-62
2023/04/07 06:26:01;;;;;;;;;;;9.20;68.50;;;;;;9175259;19;20355;-62
2023/04/07 06:29:08;;;;;;;;;;;9.20;68.50;;;;;;9183188;19;20328;-62
2023/04/07 06:32:14;;;;;;;;;;;9.30;69.20;;;;;;9184454;19;19918;-62
2023/04/07 06:35:18;;;;;;;;;;;9.30;68.60;;;;;;9184533;19;20357;-62
2023/04/07 06:38:24;;;;;;;;;;;9.30;68.60;;;;;;9184335;19;20356;-62
2023/04/07 06:41:28;;;;;;;;;;;9.30;68.60;;;;;;9185117;19;19914;-62
2023/04/07 06:44:36;;;;;;;;;;;9.30;68.60;;;;;;9184155;19;19985;-63
2023/04/07 06:47:39;;;;;;;;;;;9.30;68.70;;;;;;9180983;19;19929;-62
2023/04/07 06:50:47;;;;;;;;;;;9.30;68.70;;;;;;9182666;19;19933;-62
2023/04/07 06:53:51;;;;;;;;;;;9.30;68.70;;;;;;9184071;19;19955;-62
2023/04/07 06:56:56;;;;;;;;;;;9.30;68.70;;;;;;9183570;19;19923;-63
2023/04/07 07:00:03;;;;;;;;;;;9.30;68.80;;;;;;9183160;19;19978;-62
2023/04/07 07:03:08;;;;;;;;;;;9.30;68.80;;;;;;9183693;19;20396;-61
2023/04/07 07:06:13;;;;;;;;;;;9.30;68.80;;;;;;9183520;19;19918;-62
2023/04/07 07:09:18;;;;;;;;;;;9.30;68.80;;;;;;9178467;19;19914;-65
2023/04/07 07:12:22;;;;;;;;;;;9.30;68.80;;;;;;9181768;19;19926;-61
2023/04/07 07:15:30;;;;;;;;;;;9.30;68.90;;;;;;9180481;19;19914;-61
2023/04/07 07:18:35;;;;;;;;;;;9.30;68.90;;;;;;9182083;19;19934;-61
2023/04/07 07:21:41;;;;;;;;;;;9.40;69.00;;;;;;9172676;19;20356;-62
2023/04/07 07:24:45;;;;;;;;;;;9.40;68.90;;;;;;9173821;19;20425;-62
2023/04/07 07:27:52;;;;;;;;;;;9.40;68.90;;;;;;9164931;19;20033;-62
2023/04/07 07:30:58;;;;;;;;;;;9.40;68.90;;;;;;9175301;19;19927;-62
2023/04/07 07:34:03;;;;;;;;;;;9.40;69.00;;;;;;9170199;19;19922;-63
2023/04/07 07:37:07;;;;;;;;;;;9.40;69.00;;;;;;9174275;19;20014;-63
2023/04/07 07:40:13;;;;;;;;;;;9.50;69.10;;;;;;9173239;19;19915;-63
2023/04/07 07:43:17;;;;;;;;;;;9.50;69.10;;;;;;9174699;19;19942;-62
2023/04/07 07:46:26;;;;;;;;;;;9.50;69.10;;;;;;9172059;19;19918;-62
2023/04/07 07:49:30;;;;;;;;;;;9.50;69.10;;;;;;9174559;19;19919;-63
2023/04/07 07:52:36;;;;;;;;;;;9.50;69.10;;;;;;9173759;19;19922;-62
2023/04/07 07:55:40;;;;;;;;;;;9.60;69.20;;;;;;9174847;19;19915;-63
2023/04/07 07:58:46;;;;;;;;;;;9.50;69.10;;;;;;9172004;19;19929;-62
2023/04/07 08:01:52;;;;;;;;;;;9.50;69.20;;;;;;9172593;19;19923;-63
2023/04/07 08:04:58;;;;;;;;;;;9.50;69.20;;;;;;9174300;19;19926;-62
2023/04/07 08:08:02;;;;;;;;;;;9.60;69.30;;;;;;9169840;19;19993;-63
2023/04/07 08:11:07;;;;;;;;;;;9.60;69.90;;;;;;9169918;19;19923;-62
2023/04/07 08:14:11;;;;;;;;;;;9.60;69.30;;;;;;9173929;19;20475;-62
2023/04/07 08:17:19;;;;;;;;;;;9.60;69.30;;;;;;9172127;19;19925;-63
2023/04/07 08:20:23;;;;;;;;;;;9.70;69.40;;;;;;9170853;19;19921;-63
2023/04/07 08:23:29;;;;;;;;;;;9.70;69.40;;;;;;9174313;19;20329;-63
2023/04/07 08:26:33;;;;;;;;;;;9.70;69.40;;;;;;9166858;19;19911;-63
2023/04/07 08:29:39;;;;;;;;;;;9.70;69.40;;;;;;9172745;19;19926;-63
2023/04/07 08:32:46;;;;;;;;;;;9.80;69.40;;;;;;9172582;19;19921;-63
2023/04/07 08:35:51;;;;;;;;;;;9.80;69.40;;;;;;9170934;19;19923;-63
2023/04/07 08:38:57;;;;;;;;;;;9.80;70.00;;;;;;9171434;19;20013;-63
2023/04/07 08:42:03;;;;;;;;;;;9.90;69.50;;;;;;9172557;19;20010;-63
2023/04/07 08:45:08;;;;;;;;;;;9.90;69.40;;;;;;9178917;19;19918;-63
2023/04/07 08:48:19;;;;;;;;;;;10.00;69.50;;;;;;9174152;19;19922;-69
2023/04/07 08:51:28;;;;;;;;;;;10.00;69.50;;;;;;9177302;19;19919;-69
2023/04/07 08:54:34;;;;;;;;;;;10.10;69.40;;;;;;9178740;19;20366;-69
2023/04/07 08:57:38;;;;;;;;;;;10.10;69.40;;;;;;9177476;19;19915;-69
2023/04/07 09:00:45;;;;;;;;;;;10.10;69.40;;;;;;9177081;19;20284;-70
2023/04/07 09:03:52;;;;;;;;;;;10.20;69.50;;;;;;9177701;19;19914;-68
2023/04/07 09:07:00;;;;;;;;;;;10.20;69.50;;;;;;9176328;19;19931;-69
2023/04/07 09:10:05;;;;;;;;;;;10.20;69.50;;;;;;9173010;19;19951;-68
2023/04/07 09:13:11;;;;;;;;;;;10.20;69.50;;;;;;9175317;19;20268;-68
2023/04/07 09:16:15;;;;;;;;;;;10.20;69.50;;;;;;9175974;19;19922;-68
2023/04/07 09:19:25;;;;;;;;;;;10.30;69.60;;;;;;9176876;19;19915;-69
2023/04/07 09:22:35;;;;;;;;;;;10.30;69.60;;;;;;9174650;19;19921;-69
2023/04/07 09:25:41;;;;;;;;;;;10.40;69.60;;;;;;9177224;19;19915;-69
2023/04/07 09:28:46;;;;;;;;;;;10.40;69.60;;;;;;9167034;19;19922;-68
2023/04/07 09:31:54;;;;;;;;;;;10.50;69.70;;;;;;9178074;19;19923;-68
2023/04/07 09:35:01;;;;;;;;;;;10.50;69.70;;;;;;9178085;19;19933;-68
2023/04/07 09:38:08;;;;;;;;;;;10.50;69.60;;;;;;9178504;19;19919;-69
2023/04/07 09:41:12;;;;;;;;;;;10.60;69.70;;;;;;9177303;19;19947;-69
2023/04/07 09:44:19;;;;;;;;;;;10.60;69.70;;;;;;9177538;19;19914;-70
2023/04/07 09:47:27;;;;;;;;;;;10.60;70.30;;;;;;9174301;19;19919;-70
2023/04/07 09:50:36;;;;;;;;;;;10.70;69.80;;;;;;9178510;19;19922;-70
2023/04/07 09:53:45;;;;;;;;;;;10.70;69.80;;;;;;9175241;19;20347;-69
2023/04/07 09:56:51;;;;;;;;;;;10.70;69.70;;;;;;9172539;19;19926;-68
2023/04/07 09:59:56;;;;;;;;;;;10.80;69.80;;;;;;9175737;19;20451;-68
2023/04/07 10:03:02;;;;;;;;;;;10.80;69.80;;;;;;9173535;19;19919;-69
2023/04/07 10:06:08;;;;;;;;;;;10.80;69.80;;;;;;9174639;19;19923;-68
2023/04/07 10:09:14;;;;;;;;;;;10.90;69.80;;;;;;9171396;19;20237;-68
2023/04/07 10:12:19;;;;;;;;;;;10.90;69.80;;;;;;9174396;19;19936;-69
2023/04/07 10:15:25;;;;;;;;;;;10.90;69.80;;;;;;9173064;19;19918;-68
2023/04/07 10:18:30;;;;;;;;;;;10.90;69.80;;;;;;9172623;19;19922;-68
2023/04/07 10:21:41;;;;;;;;;;;10.90;69.80;;;;;;9174603;19;19943;-69
2023/04/07 10:24:51;;;;;;;;;;;10.90;69.80;;;;;;9168725;19;19918;-69
2023/04/07 10:28:00;;;;;;;;;;;11.00;69.90;;;;;;9167301;19;19919;-68
2023/04/07 10:31:04;;;;;;;;;;;11.00;69.90;;;;;;9173580;19;19919;-68
2023/04/07 10:34:10;;;;;;;;;;;11.00;69.90;;;;;;9179421;19;19933;-69
2023/04/07 10:37:18;;;;;;;;;;;11.00;69.90;;;;;;9183082;19;20388;-67
2023/04/07 10:40:31;;;;;;;;;;;11.00;69.90;;;;;;9182772;19;19923;-68
2023/04/07 10:43:40;;;;;;;;;;;11.10;69.90;;;;;;9181821;19;19930;-68
2023/04/07 10:47:11;;;;;;;;;;;11.10;70.00;;;;;;9182541;19;19919;-69
2023/04/07 10:50:16;;;;;;;;;;;11.10;69.90;;;;;;9179584;19;19942;-70
2023/04/07 10:53:24;;;;;;;;;;;11.20;70.00;;;;;;9178138;19;19911;-70
2023/04/07 10:56:27;;;;;;;;;;;11.10;70.00;;;;;;9178549;19;19923;-69
2023/04/07 10:59:34;;;;;;;;;;;11.10;69.90;;;;;;9179664;19;19918;-70
2023/04/07 11:02:39;;;;;;;;;;;11.20;70.00;;;;;;9181419;19;19964;-71
2023/04/07 11:05:45;;;;;;;;;;;11.20;70.00;;;;;;9182160;19;19911;-70
2023/04/07 11:08:51;;;;;;;;;;;11.20;69.90;;;;;;9180673;19;20340;-71
2023/04/07 11:11:57;;;;;;;;;;;11.20;69.90;;;;;;9183221;19;20335;-70
2023/04/07 11:15:17;;;;;;;;;;;11.20;70.00;;;;;;9182853;19;19922;-70
2023/04/07 11:18:24;;;;;;;;;;;11.20;70.00;;;;;;9182464;19;19926;-70
2023/04/07 11:21:27;;;;;;;;;;;11.20;70.00;;;;;;9180698;19;19923;-70
2023/04/07 11:24:37;;;;;;;;;;;11.20;70.10;;;;;;9182277;19;19915;-70
2023/04/07 11:27:41;;;;;;;;;;;11.20;70.10;;;;;;9174189;19;19971;-71
2023/04/07 11:30:48;;;;;;;;;;;11.20;70.10;;;;;;9181733;19;19941;-71
2023/04/07 11:33:53;;;;;;;;;;;11.20;70.10;;;;;;9180940;19;20332;-70
2023/04/07 11:37:00;;;;;;;;;;;11.20;70.10;;;;;;9182745;19;19919;-71
2023/04/07 11:40:07;;;;;;;;;;;11.20;70.10;;;;;;9177288;19;19988;-67
2023/04/07 11:43:20;;;;;;;;;;;11.20;70.10;;;;;;9179274;19;19922;-68
2023/04/07 11:46:24;;;;;;;;;;;11.20;70.20;;;;;;9179032;19;19955;-67
2023/04/07 11:49:31;;;;;;;;;;;11.20;70.20;;;;;;9175771;19;19922;-68
2023/04/07 11:52:41;;;;;;;;;;;11.20;70.20;;;;;;9178016;19;19918;-68
2023/04/07 11:55:49;;;;;;;;;;;11.20;70.20;;;;;;9177338;19;19915;-68
2023/04/07 11:58:54;;;;;;;;;;;11.20;70.20;;;;;;9177066;19;19911;-68
2023/04/07 12:01:59;;;;;;;;;;;11.20;70.20;;;;;;9175767;19;19919;-68
2023/04/07 12:05:03;;;;;;;;;;;11.30;70.20;;;;;;9176385;19;19930;-68
2023/04/07 12:08:09;;;;;;;;;;;11.30;70.20;;;;;;9175965;19;20268;-68
2023/04/07 12:11:15;;;;;;;;;;;11.30;70.20;;;;;;9177424;19;19918;-68
2023/04/07 12:14:21;;;;;;;;;;;11.30;70.20;;;;;;9175753;19;19915;-68
2023/04/07 12:17:25;;;;;;;;;;;11.30;70.90;;;;;;9172691;19;19922;-68
2023/04/07 12:20:31;;;;;;;;;;;11.40;70.30;;;;;;9175490;19;19915;-68
2023/04/07 12:23:35;;;;;;;;;;;11.40;70.30;;;;;;9177242;19;19947;-68
2023/04/07 12:26:46;;;;;;;;;;;11.40;70.30;;;;;;9172135;19;20276;-68
2023/04/07 12:29:50;;;;;;;;;;;11.40;70.30;;;;;;9173262;19;19907;-68
2023/04/07 12:32:56;;;;;;;;;;;11.40;70.30;;;;;;9175252;19;20257;-68
2023/04/07 12:36:00;;;;;;;;;;;11.40;70.30;;;;;;9176599;19;20340;-68
2023/04/07 12:39:06;;;;;;;;;;;11.50;70.40;;;;;;9175258;19;20340;-68
2023/04/07 12:42:13;;;;;;;;;;;11.50;70.30;;;;;;9175158;19;20269;-68
2023/04/07 12:45:19;;;;;;;;;;;11.50;70.30;;;;;;9180011;19;19915;-68
2023/04/07 12:48:23;;;;;;;;;;;11.50;70.30;;;;;;9177199;19;19926;-68
2023/04/07 12:51:28;;;;;;;;;;;11.60;70.40;;;;;;9177444;19;19941;-68
2023/04/07 12:54:32;;;;;;;;;;;11.60;70.40;;;;;;9176032;19;19933;-68
2023/04/07 12:57:40;;;;;;;;;;;11.70;70.40;;;;;;9174593;19;20260;-68
2023/04/07 13:00:45;;;;;;;;;;;11.70;70.40;;;;;;9176470;19;20438;-68
2023/04/07 13:03:51;;;;;;;;;;;11.80;70.40;;;;;;9175816;19;20368;-68
2023/04/07 13:06:56;;;;;;;;;;;11.90;70.40;;;;;;9176171;19;19911;-68
2023/04/07 13:10:02;;;;;;;;;;;11.90;70.40;;;;;;9171202;19;19922;-68
2023/04/07 13:13:08;;;;;;;;;;;11.90;70.30;;;;;;9169470;19;19934;-68
2023/04/07 13:16:14;;;;;;;;;;;11.90;70.30;;;;;;9177272;19;19925;-68
2023/04/07 13:19:18;;;;;;;;;;;12.00;70.40;;;;;;9174637;19;19931;-68
2023/04/07 13:22:24;;;;;;;;;;;12.10;70.40;;;;;;9178812;19;19951;-68
2023/04/07 13:25:28;;;;;;;;;;;12.10;70.30;;;;;;9177991;19;19922;-67
2023/04/07 13:28:36;;;;;;;;;;;12.10;70.30;;;;;;9169645;19;19918;-68
2023/04/07 13:31:40;;;;;;;;;;;12.20;70.30;;;;;;9178202;19;20613;-68
2023/04/07 13:34:46;;;;;;;;;;;12.20;70.30;;;;;;9177479;19;19962;-67
2023/04/07 13:37:50;;;;;;;;;;;12.30;70.40;;;;;;9177981;19;19929;-68
2023/04/07 13:40:55;;;;;;;;;;;12.30;70.30;;;;;;9175940;19;19926;-68
2023/04/07 13:44:02;;;;;;;;;;;12.40;70.30;;;;;;9176390;19;19914;-67
2023/04/07 13:47:08;;;;;;;;;;;12.50;70.30;;;;;;9176905;19;19918;-67
2023/04/07 13:50:11;;;;;;;;;;;12.50;70.30;;;;;;9172280;19;20255;-67
2023/04/07 13:53:18;;;;;;;;;;;12.60;70.30;;;;;;9175452;19;19934;-67
2023/04/07 13:56:23;;;;;;;;;;;12.60;70.20;;;;;;9175588;19;19922;-67
2023/04/07 13:59:31;;;;;;;;;;;12.60;70.20;;;;;;9176578;19;19922;-70
2023/04/07 14:02:35;;;;;;;;;;;12.70;70.20;;;;;;9175387;19;19937;-70
2023/04/07 14:05:41;;;;;;;;;;;12.70;70.10;;;;;;9175003;19;19922;-70
2023/04/07 14:08:44;;;;;;;;;;;12.80;70.20;;;;;;9178388;19;19922;-70
2023/04/07 14:11:50;;;;;;;;;;;12.80;70.10;;;;;;9182581;19;19926;-70
2023/04/07 14:14:56;;;;;;;;;;;12.80;70.10;;;;;;9172008;19;21583;-70
2023/04/07 14:18:02;;;;;;;;;;;12.80;70.10;;;;;;9184189;19;19927;-70
2023/04/07 14:21:06;;;;;;;;;;;12.80;70.10;;;;;;9181271;19;19915;-70
2023/04/07 14:24:12;;;;;;;;;;;12.80;70.10;;;;;;9181904;19;20013;-70
2023/04/07 14:27:19;;;;;;;;;;;12.90;70.10;;;;;;9175477;19;19985;-72
2023/04/07 14:30:29;;;;;;;;;;;12.90;70.10;;;;;;9178792;19;19918;-72
2023/04/07 14:33:33;;;;;;;;;;;12.90;70.10;;;;;;9174962;19;19927;-72
2023/04/07 14:36:39;;;;;;;;;;;12.90;70.10;;;;;;9174238;19;19915;-71
2023/04/07 14:39:43;;;;;;;;;;;12.90;70.00;;;;;;9173792;19;19933;-72
2023/04/07 14:43:07;;;;;;;;;;;12.90;70.00;;;;;;9172503;19;20249;-72
2023/04/07 14:46:13;;;;;;;;;;;12.90;70.00;;;;;;9173779;19;20349;-71
2023/04/07 14:49:19;;;;;;;;;;;12.90;70.10;;;;;;9170116;19;19929;-71
2023/04/07 14:52:23;;;;;;;;;;;12.90;70.00;;;;;;9173892;19;19918;-71
2023/04/07 14:55:29;;;;;;;;;;;12.90;70.00;;;;;;9173139;19;19915;-70
2023/04/07 14:58:36;;;;;;;;;;;13.00;70.00;;;;;;9174125;19;19938;-70
2023/04/07 15:01:43;;;;;;;;;;;13.00;70.00;;;;;;9174627;19;19933;-70
2023/04/07 15:04:47;;;;;;;;;;;13.00;70.00;;;;;;9170427;19;19918;-70
2023/04/07 15:07:53;;;;;;;;;;;13.00;70.10;;;;;;9172474;19;19937;-70
2023/04/07 15:10:57;;;;;;;;;;;13.00;70.00;;;;;;9168044;19;20005;-71
2023/04/07 15:14:05;;;;;;;;;;;12.90;70.00;;;;;;9171877;19;20288;-70
2023/04/07 15:17:11;;;;;;;;;;;13.00;70.00;;;;;;9172618;19;19923;-71
2023/04/07 15:20:17;;;;;;;;;;;13.00;70.00;;;;;;9169953;19;19915;-71
2023/04/07 15:23:21;;;;;;;;;;;13.00;70.00;;;;;;9169871;19;19982;-71
2023/04/07 15:26:27;;;;;;;;;;;13.00;70.00;;;;;;9160305;19;19914;-70
2023/04/07 15:29:31;;;;;;;;;;;12.90;70.00;;;;;;9163991;19;19925;-71
2023/04/07 15:32:39;;;;;;;;;;;13.00;70.00;;;;;;9168233;19;19933;-71
2023/04/07 15:35:43;;;;;;;;;;;12.90;70.00;;;;;;9166792;19;19934;-71
2023/04/07 15:38:49;;;;;;;;;;;12.90;70.00;;;;;;9175877;19;20054;-71
2023/04/07 15:41:53;;;;;;;;;;;12.90;69.90;;;;;;9179081;19;19933;-71
2023/04/07 15:44:59;;;;;;;;;;;12.90;69.90;;;;;;9180314;19;19942;-71
2023/04/07 15:48:05;;;;;;;;;;;12.90;69.90;;;;;;9178307;19;19931;-70
2023/04/07 15:51:11;;;;;;;;;;;13.00;70.00;;;;;;9172745;19;20292;-70
2023/04/07 15:54:15;;;;;;;;;;;13.00;69.90;;;;;;9175362;19;19926;-70
2023/04/07 15:57:21;;;;;;;;;;;13.00;69.90;;;;;;9174887;19;20001;-71
2023/04/07 16:00:25;;;;;;;;;;;13.00;69.90;;;;;;9172986;19;19930;-71
2023/04/07 16:03:33;;;;;;;;;;;13.00;69.90;;;;;;9181051;19;20181;-71
2023/04/07 16:06:37;;;;;;;;;;;12.90;69.80;;;;;;9180984;19;20323;-71
2023/04/07 16:09:43;;;;;;;;;;;12.90;69.90;;;;;;9177554;19;20450;-71
2023/04/07 16:12:47;;;;;;;;;;;12.90;69.90;;;;;;9176523;19;19931;-71
2023/04/07 16:15:56;;;;;;;;;;;12.90;69.90;;;;;;9181297;19;20026;-71
2023/04/07 16:19:01;;;;;;;;;;;12.90;70.50;;;;;;9177523;19;19990;-69
2023/04/07 16:22:07;;;;;;;;;;;12.90;69.90;;;;;;9173965;19;19918;-69
2023/04/07 16:25:11;;;;;;;;;;;12.90;69.90;;;;;;9163963;19;19950;-70
2023/04/07 16:28:17;;;;;;;;;;;12.90;69.90;;;;;;9161471;19;19922;-68
2023/04/07 16:31:21;;;;;;;;;;;12.90;69.90;;;;;;9163695;19;19937;-68
2023/04/07 16:34:29;;;;;;;;;;;12.90;69.80;;;;;;9164308;19;20373;-68
2023/04/07 16:37:32;;;;;;;;;;;12.90;69.80;;;;;;9170182;19;20349;-68
2023/04/07 16:40:38;;;;;;;;;;;12.90;69.80;;;;;;9168999;19;19923;-69
2023/04/07 16:43:42;;;;;;;;;;;12.90;69.80;;;;;;9168493;19;19944;-68
2023/04/07 16:46:48;;;;;;;;;;;13.00;69.90;;;;;;9167817;19;19919;-68
2023/04/07 16:49:54;;;;;;;;;;;13.00;69.90;;;;;;9167948;19;19933;-69
2023/04/07 16:53:00;;;;;;;;;;;13.00;69.90;;;;;;9169588;19;19923;-69
2023/04/07 16:56:04;;;;;;;;;;;13.00;69.80;;;;;;9168933;19;19955;-70
2023/04/07 16:59:10;;;;;;;;;;;13.00;69.80;;;;;;9171995;19;20257;-69
2023/04/07 17:02:15;;;;;;;;;;;13.00;69.80;;;;;;9169444;19;19925;-69
2023/04/07 17:05:23;;;;;;;;;;;13.00;69.80;;;;;;9169129;19;19933;-69
2023/04/07 17:08:27;;;;;;;;;;;13.00;69.80;;;;;;9168983;19;19929;-69
2023/04/07 17:11:33;;;;;;;;;;;13.00;69.80;;;;;;9168023;19;19919;-69
2023/04/07 17:14:37;;;;;;;;;;;13.00;69.70;;;;;;9168522;19;19922;-69
2023/04/07 17:17:42;;;;;;;;;;;13.00;69.80;;;;;;9170972;19;19923;-69
2023/04/07 17:20:48;;;;;;;;;;;13.00;69.80;;;;;;9171793;19;19923;-69
2023/04/07 17:23:54;;;;;;;;;;;13.00;69.80;;;;;;9169046;19;19930;-69
2023/04/07 17:26:58;;;;;;;;;;;13.00;69.70;;;;;;9165474;19;19927;-69
2023/04/07 17:30:05;;;;;;;;;;;12.90;69.70;;;;;;9168157;19;19919;-69
2023/04/07 17:33:09;;;;;;;;;;;13.00;69.80;;;;;;9171202;19;20351;-70
2023/04/07 17:36:17;;;;;;;;;;;13.00;69.70;;;;;;9168503;19;19919;-70
2023/04/07 17:39:21;;;;;;;;;;;13.00;69.70;;;;;;9171333;19;19919;-70
2023/04/07 17:42:27;;;;;;;;;;;13.00;69.70;;;;;;9175502;19;19923;-70
2023/04/07 17:45:31;;;;;;;;;;;12.90;69.70;;;;;;9179039;19;19919;-70
2023/04/07 17:48:38;;;;;;;;;;;12.90;69.80;;;;;;9175443;19;20256;-70
2023/04/07 17:51:44;;;;;;;;;;;12.90;69.70;;;;;;9166550;19;19923;-70
2023/04/07 17:54:50;;;;;;;;;;;12.90;69.70;;;;;;9163340;19;19922;-70
2023/04/07 17:57:59;;;;;;;;;;;12.90;69.70;;;;;;9169141;19;19919;-70
2023/04/07 18:01:05;;;;;;;;;;;12.90;69.80;;;;;;9173235;19;19919;-70
2023/04/07 18:04:09;;;;;;;;;;;12.80;69.70;;;;;;9172491;19;20576;-70
2023/04/07 18:07:17;;;;;;;;;;;12.80;69.70;;;;;;9169772;19;20826;-70
2023/04/07 18:10:21;;;;;;;;;;;12.80;69.80;;;;;;9163303;19;19923;-70
2023/04/07 18:13:26;;;;;;;;;;;12.80;69.80;;;;;;9168645;19;19926;-70